sensor_id;sensor_type;location;lat;lon;timestamp;P1;durP1;ratioP1;P2;durP2;ratioP2
11396;SDS011;5754;43.726;7.416;2022-12-07T00:00:22;2.37;;;2.17;;
11396;SDS011;5754;43.726;7.416;2022-12-07T00:02:57;4.43;;;2.33;;
11396;SDS011;5754;43.726;7.416;2022-12-07T00:05:31;2.30;;;2.10;;
11396;SDS011;5754;43.726;7.416;2022-12-07T00:08:06;2.73;;;2.30;;
11396;SDS011;5754;43.726;7.416;2022-12-07T00:10:40;3.20;;;2.40;;
11396;SDS011;5754;43.726;7.416;2022-12-07T00:13:16;2.67;;;2.47;;
11396;SDS011;5754;43.726;7.416;2022-12-07T00:15:50;3.50;;;2.30;;
11396;SDS011;5754;43.726;7.416;2022-12-07T00:18:24;2.13;;;1.93;;
11396;SDS011;5754;43.726;7.416;2022-12-07T00:20:59;3.07;;;2.20;;
11396;SDS011;5754;43.726;7.416;2022-12-07T00:23:34;2.87;;;2.43;;
11396;SDS011;5754;43.726;7.416;2022-12-07T00:26:10;2.53;;;2.30;;
11396;SDS011;5754;43.726;7.416;2022-12-07T00:28:48;2.77;;;2.20;;
11396;SDS011;5754;43.726;7.416;2022-12-07T00:31:25;2.50;;;2.30;;
11396;SDS011;5754;43.726;7.416;2022-12-07T00:34:00;2.27;;;2.07;;
11396;SDS011;5754;43.726;7.416;2022-12-07T00:36:34;2.53;;;2.33;;
11396;SDS011;5754;43.726;7.416;2022-12-07T00:39:09;3.00;;;2.30;;
11396;SDS011;5754;43.726;7.416;2022-12-07T00:41:43;3.43;;;2.70;;
11396;SDS011;5754;43.726;7.416;2022-12-07T00:44:18;2.47;;;2.27;;
11396;SDS011;5754;43.726;7.416;2022-12-07T00:46:52;2.63;;;1.90;;
11396;SDS011;5754;43.726;7.416;2022-12-07T00:49:28;3.13;;;2.40;;
11396;SDS011;5754;43.726;7.416;2022-12-07T00:52:02;3.37;;;2.43;;
11396;SDS011;5754;43.726;7.416;2022-12-07T00:54:37;3.77;;;2.40;;
11396;SDS011;5754;43.726;7.416;2022-12-07T00:57:11;2.60;;;2.13;;
11396;SDS011;5754;43.726;7.416;2022-12-07T00:59:45;3.27;;;2.30;;
11396;SDS011;5754;43.726;7.416;2022-12-07T01:02:20;4.70;;;2.27;;
11396;SDS011;5754;43.726;7.416;2022-12-07T01:04:55;2.63;;;2.20;;
11396;SDS011;5754;43.726;7.416;2022-12-07T01:07:30;2.57;;;2.30;;
11396;SDS011;5754;43.726;7.416;2022-12-07T01:10:04;3.33;;;2.10;;
11396;SDS011;5754;43.726;7.416;2022-12-07T01:12:39;2.97;;;2.30;;
11396;SDS011;5754;43.726;7.416;2022-12-07T01:15:14;2.30;;;2.00;;
11396;SDS011;5754;43.726;7.416;2022-12-07T01:17:48;2.40;;;2.20;;
11396;SDS011;5754;43.726;7.416;2022-12-07T01:20:23;3.50;;;2.57;;
11396;SDS011;5754;43.726;7.416;2022-12-07T01:22:58;3.33;;;2.23;;
11396;SDS011;5754;43.726;7.416;2022-12-07T01:25:33;5.57;;;2.50;;
11396;SDS011;5754;43.726;7.416;2022-12-07T01:28:07;2.50;;;2.30;;
11396;SDS011;5754;43.726;7.416;2022-12-07T01:30:41;3.00;;;2.33;;
11396;SDS011;5754;43.726;7.416;2022-12-07T01:33:16;4.33;;;2.70;;
11396;SDS011;5754;43.726;7.416;2022-12-07T01:35:51;2.53;;;2.23;;
11396;SDS011;5754;43.726;7.416;2022-12-07T01:38:25;2.87;;;2.43;;
11396;SDS011;5754;43.726;7.416;2022-12-07T01:41:00;2.57;;;2.37;;
11396;SDS011;5754;43.726;7.416;2022-12-07T01:43:35;2.20;;;2.00;;
11396;SDS011;5754;43.726;7.416;2022-12-07T01:46:10;2.77;;;2.30;;
11396;SDS011;5754;43.726;7.416;2022-12-07T01:48:44;2.40;;;2.10;;
11396;SDS011;5754;43.726;7.416;2022-12-07T01:51:18;3.80;;;2.43;;
11396;SDS011;5754;43.726;7.416;2022-12-07T01:53:53;2.60;;;2.40;;
11396;SDS011;5754;43.726;7.416;2022-12-07T01:56:28;2.87;;;2.50;;
11396;SDS011;5754;43.726;7.416;2022-12-07T01:59:03;3.17;;;2.30;;
11396;SDS011;5754;43.726;7.416;2022-12-07T02:01:38;3.07;;;2.23;;
11396;SDS011;5754;43.726;7.416;2022-12-07T02:04:15;3.07;;;2.57;;
11396;SDS011;5754;43.726;7.416;2022-12-07T02:06:50;3.07;;;2.40;;
11396;SDS011;5754;43.726;7.416;2022-12-07T02:09:26;2.60;;;2.40;;
11396;SDS011;5754;43.726;7.416;2022-12-07T02:12:00;3.30;;;2.47;;
11396;SDS011;5754;43.726;7.416;2022-12-07T02:14:36;3.53;;;2.37;;
11396;SDS011;5754;43.726;7.416;2022-12-07T02:17:25;6.70;;;2.47;;
11396;SDS011;5754;43.726;7.416;2022-12-07T02:25:22;2.40;;;2.10;;
11396;SDS011;5754;43.726;7.416;2022-12-07T02:28:12;2.93;;;1.90;;
11396;SDS011;5754;43.726;7.416;2022-12-07T02:30:53;2.50;;;2.23;;
11396;SDS011;5754;43.726;7.416;2022-12-07T02:33:31;2.73;;;2.30;;
11396;SDS011;5754;43.726;7.416;2022-12-07T02:36:09;3.53;;;2.10;;
11396;SDS011;5754;43.726;7.416;2022-12-07T02:38:54;2.17;;;2.03;;
11396;SDS011;5754;43.726;7.416;2022-12-07T02:41:33;2.60;;;2.30;;
11396;SDS011;5754;43.726;7.416;2022-12-07T02:44:13;3.40;;;2.30;;
11396;SDS011;5754;43.726;7.416;2022-12-07T02:46:52;3.90;;;2.50;;
11396;SDS011;5754;43.726;7.416;2022-12-07T02:49:28;2.33;;;2.13;;
11396;SDS011;5754;43.726;7.416;2022-12-07T02:52:03;4.70;;;2.30;;
11396;SDS011;5754;43.726;7.416;2022-12-07T02:54:37;2.63;;;2.30;;
11396;SDS011;5754;43.726;7.416;2022-12-07T03:04:24;5.13;;;2.57;;
11396;SDS011;5754;43.726;7.416;2022-12-07T03:11:14;2.50;;;2.20;;
11396;SDS011;5754;43.726;7.416;2022-12-07T03:13:59;2.80;;;2.27;;
11396;SDS011;5754;43.726;7.416;2022-12-07T03:16:41;2.93;;;2.63;;
11396;SDS011;5754;43.726;7.416;2022-12-07T03:19:17;2.77;;;2.20;;
11396;SDS011;5754;43.726;7.416;2022-12-07T03:21:54;3.50;;;2.30;;
11396;SDS011;5754;43.726;7.416;2022-12-07T03:24:35;2.70;;;2.50;;
11396;SDS011;5754;43.726;7.416;2022-12-07T03:27:21;3.10;;;2.80;;
11396;SDS011;5754;43.726;7.416;2022-12-07T03:30:03;2.53;;;2.33;;
11396;SDS011;5754;43.726;7.416;2022-12-07T03:32:40;3.83;;;2.43;;
11396;SDS011;5754;43.726;7.416;2022-12-07T03:43:42;2.63;;;2.43;;
11396;SDS011;5754;43.726;7.416;2022-12-07T03:50:28;3.50;;;2.13;;
11396;SDS011;5754;43.726;7.416;2022-12-07T03:53:15;5.00;;;2.57;;
11396;SDS011;5754;43.726;7.416;2022-12-07T03:55:52;3.13;;;2.60;;
11396;SDS011;5754;43.726;7.416;2022-12-07T03:58:29;3.07;;;2.60;;
11396;SDS011;5754;43.726;7.416;2022-12-07T04:01:04;4.80;;;2.70;;
11396;SDS011;5754;43.726;7.416;2022-12-07T04:03:38;4.53;;;2.87;;
11396;SDS011;5754;43.726;7.416;2022-12-07T04:06:13;2.73;;;2.53;;
11396;SDS011;5754;43.726;7.416;2022-12-07T04:08:47;2.63;;;2.33;;
11396;SDS011;5754;43.726;7.416;2022-12-07T04:11:25;2.60;;;2.40;;
11396;SDS011;5754;43.726;7.416;2022-12-07T04:13:59;3.07;;;2.47;;
11396;SDS011;5754;43.726;7.416;2022-12-07T04:16:53;3.63;;;2.67;;
11396;SDS011;5754;43.726;7.416;2022-12-07T04:19:32;3.63;;;2.70;;
11396;SDS011;5754;43.726;7.416;2022-12-07T04:22:07;3.47;;;2.43;;
11396;SDS011;5754;43.726;7.416;2022-12-07T04:24:41;3.30;;;2.27;;
11396;SDS011;5754;43.726;7.416;2022-12-07T04:27:15;3.73;;;2.63;;
11396;SDS011;5754;43.726;7.416;2022-12-07T04:29:52;2.70;;;2.47;;
11396;SDS011;5754;43.726;7.416;2022-12-07T04:32:26;2.60;;;2.40;;
11396;SDS011;5754;43.726;7.416;2022-12-07T04:35:02;2.70;;;2.50;;
11396;SDS011;5754;43.726;7.416;2022-12-07T04:37:36;3.60;;;2.47;;
11396;SDS011;5754;43.726;7.416;2022-12-07T04:40:12;3.93;;;2.73;;
11396;SDS011;5754;43.726;7.416;2022-12-07T04:42:49;2.73;;;2.30;;
11396;SDS011;5754;43.726;7.416;2022-12-07T04:45:23;4.30;;;2.63;;
11396;SDS011;5754;43.726;7.416;2022-12-07T04:47:58;3.20;;;2.63;;
11396;SDS011;5754;43.726;7.416;2022-12-07T04:50:33;4.77;;;2.70;;
11396;SDS011;5754;43.726;7.416;2022-12-07T04:53:13;3.63;;;2.47;;
11396;SDS011;5754;43.726;7.416;2022-12-07T04:55:48;3.90;;;2.80;;
11396;SDS011;5754;43.726;7.416;2022-12-07T04:58:22;4.07;;;2.30;;
11396;SDS011;5754;43.726;7.416;2022-12-07T05:00:56;2.77;;;2.37;;
11396;SDS011;5754;43.726;7.416;2022-12-07T05:03:30;4.47;;;2.93;;
11396;SDS011;5754;43.726;7.416;2022-12-07T05:06:05;4.37;;;2.70;;
11396;SDS011;5754;43.726;7.416;2022-12-07T05:08:42;4.47;;;2.83;;
11396;SDS011;5754;43.726;7.416;2022-12-07T05:11:17;4.00;;;3.03;;
11396;SDS011;5754;43.726;7.416;2022-12-07T05:14:15;5.20;;;2.30;;
11396;SDS011;5754;43.726;7.416;2022-12-07T05:16:51;4.03;;;2.80;;
11396;SDS011;5754;43.726;7.416;2022-12-07T05:19:27;5.13;;;3.00;;
11396;SDS011;5754;43.726;7.416;2022-12-07T05:22:01;3.30;;;2.80;;
11396;SDS011;5754;43.726;7.416;2022-12-07T05:24:36;4.13;;;2.80;;
11396;SDS011;5754;43.726;7.416;2022-12-07T05:27:11;3.00;;;2.57;;
11396;SDS011;5754;43.726;7.416;2022-12-07T05:29:46;4.53;;;3.07;;
11396;SDS011;5754;43.726;7.416;2022-12-07T05:32:21;4.23;;;2.63;;
11396;SDS011;5754;43.726;7.416;2022-12-07T05:34:56;2.90;;;2.60;;
11396;SDS011;5754;43.726;7.416;2022-12-07T05:37:30;3.03;;;2.73;;
11396;SDS011;5754;43.726;7.416;2022-12-07T05:40:05;4.03;;;2.60;;
11396;SDS011;5754;43.726;7.416;2022-12-07T05:42:40;3.27;;;2.90;;
11396;SDS011;5754;43.726;7.416;2022-12-07T05:45:16;4.57;;;2.80;;
11396;SDS011;5754;43.726;7.416;2022-12-07T05:47:50;7.87;;;2.90;;
11396;SDS011;5754;43.726;7.416;2022-12-07T05:50:25;5.27;;;2.80;;
11396;SDS011;5754;43.726;7.416;2022-12-07T05:53:06;3.33;;;2.80;;
11396;SDS011;5754;43.726;7.416;2022-12-07T05:55:42;3.87;;;3.00;;
11396;SDS011;5754;43.726;7.416;2022-12-07T05:58:17;3.07;;;2.77;;
11396;SDS011;5754;43.726;7.416;2022-12-07T06:01:10;3.00;;;2.70;;
11396;SDS011;5754;43.726;7.416;2022-12-07T06:03:45;6.93;;;4.00;;
11396;SDS011;5754;43.726;7.416;2022-12-07T06:06:19;4.33;;;3.07;;
11396;SDS011;5754;43.726;7.416;2022-12-07T06:08:53;3.43;;;2.83;;
11396;SDS011;5754;43.726;7.416;2022-12-07T06:11:28;3.77;;;3.27;;
11396;SDS011;5754;43.726;7.416;2022-12-07T06:14:22;2.93;;;2.63;;
11396;SDS011;5754;43.726;7.416;2022-12-07T06:16:56;3.03;;;2.73;;
11396;SDS011;5754;43.726;7.416;2022-12-07T06:19:31;7.07;;;3.30;;
11396;SDS011;5754;43.726;7.416;2022-12-07T06:22:05;3.50;;;2.60;;
11396;SDS011;5754;43.726;7.416;2022-12-07T06:24:40;5.70;;;2.80;;
11396;SDS011;5754;43.726;7.416;2022-12-07T06:27:15;4.27;;;3.30;;
11396;SDS011;5754;43.726;7.416;2022-12-07T06:29:49;3.27;;;2.97;;
11396;SDS011;5754;43.726;7.416;2022-12-07T06:32:24;4.83;;;2.70;;
11396;SDS011;5754;43.726;7.416;2022-12-07T06:37:45;3.50;;;2.90;;
11396;SDS011;5754;43.726;7.416;2022-12-07T06:40:19;3.70;;;3.00;;
11396;SDS011;5754;43.726;7.416;2022-12-07T06:42:54;4.20;;;3.80;;
11396;SDS011;5754;43.726;7.416;2022-12-07T06:45:29;8.83;;;7.10;;
11396;SDS011;5754;43.726;7.416;2022-12-07T06:48:04;6.63;;;5.90;;
11396;SDS011;5754;43.726;7.416;2022-12-07T06:50:38;7.63;;;4.90;;
11396;SDS011;5754;43.726;7.416;2022-12-07T06:53:13;6.00;;;4.23;;
11396;SDS011;5754;43.726;7.416;2022-12-07T06:55:47;5.20;;;3.53;;
11396;SDS011;5754;43.726;7.416;2022-12-07T06:58:22;5.17;;;3.23;;
11396;SDS011;5754;43.726;7.416;2022-12-07T07:00:56;4.87;;;3.40;;
11396;SDS011;5754;43.726;7.416;2022-12-07T07:03:31;4.93;;;3.37;;
11396;SDS011;5754;43.726;7.416;2022-12-07T07:06:05;5.60;;;3.70;;
11396;SDS011;5754;43.726;7.416;2022-12-07T07:08:41;6.50;;;3.47;;
11396;SDS011;5754;43.726;7.416;2022-12-07T07:11:16;6.93;;;3.70;;
11396;SDS011;5754;43.726;7.416;2022-12-07T07:13:50;11.47;;;4.17;;
11396;SDS011;5754;43.726;7.416;2022-12-07T07:16:24;5.80;;;3.73;;
11396;SDS011;5754;43.726;7.416;2022-12-07T07:18:59;13.13;;;4.53;;
11396;SDS011;5754;43.726;7.416;2022-12-07T07:21:33;9.00;;;3.73;;
11396;SDS011;5754;43.726;7.416;2022-12-07T07:24:08;7.50;;;3.67;;
11396;SDS011;5754;43.726;7.416;2022-12-07T07:26:42;9.33;;;4.13;;
11396;SDS011;5754;43.726;7.416;2022-12-07T07:29:16;7.23;;;4.20;;
11396;SDS011;5754;43.726;7.416;2022-12-07T07:31:52;9.30;;;5.10;;
11396;SDS011;5754;43.726;7.416;2022-12-07T07:34:26;11.67;;;4.73;;
11396;SDS011;5754;43.726;7.416;2022-12-07T07:37:01;7.17;;;3.93;;
11396;SDS011;5754;43.726;7.416;2022-12-07T07:39:35;6.23;;;3.80;;
11396;SDS011;5754;43.726;7.416;2022-12-07T07:42:09;10.23;;;3.97;;
11396;SDS011;5754;43.726;7.416;2022-12-07T07:44:47;7.90;;;4.00;;
11396;SDS011;5754;43.726;7.416;2022-12-07T07:47:21;9.83;;;4.40;;
11396;SDS011;5754;43.726;7.416;2022-12-07T07:49:56;9.60;;;4.23;;
11396;SDS011;5754;43.726;7.416;2022-12-07T07:52:30;7.37;;;4.20;;
11396;SDS011;5754;43.726;7.416;2022-12-07T07:55:05;8.57;;;4.13;;
11396;SDS011;5754;43.726;7.416;2022-12-07T07:57:43;6.43;;;4.30;;
11396;SDS011;5754;43.726;7.416;2022-12-07T08:00:20;10.00;;;3.90;;
11396;SDS011;5754;43.726;7.416;2022-12-07T08:02:55;5.77;;;3.97;;
11396;SDS011;5754;43.726;7.416;2022-12-07T08:05:30;9.20;;;3.23;;
11396;SDS011;5754;43.726;7.416;2022-12-07T08:08:04;5.70;;;3.17;;
11396;SDS011;5754;43.726;7.416;2022-12-07T08:10:39;10.83;;;3.60;;
11396;SDS011;5754;43.726;7.416;2022-12-07T08:13:15;4.30;;;3.00;;
11396;SDS011;5754;43.726;7.416;2022-12-07T08:15:50;9.73;;;3.63;;
11396;SDS011;5754;43.726;7.416;2022-12-07T08:18:24;7.07;;;3.33;;
11396;SDS011;5754;43.726;7.416;2022-12-07T08:20:59;5.83;;;3.53;;
11396;SDS011;5754;43.726;7.416;2022-12-07T08:23:34;5.03;;;3.00;;
11396;SDS011;5754;43.726;7.416;2022-12-07T08:26:13;5.00;;;3.00;;
11396;SDS011;5754;43.726;7.416;2022-12-07T08:28:49;8.33;;;3.23;;
11396;SDS011;5754;43.726;7.416;2022-12-07T08:31:23;5.97;;;3.00;;
11396;SDS011;5754;43.726;7.416;2022-12-07T08:33:58;3.13;;;2.80;;
11396;SDS011;5754;43.726;7.416;2022-12-07T08:36:33;3.77;;;2.57;;
11396;SDS011;5754;43.726;7.416;2022-12-07T08:39:07;5.53;;;2.80;;
11396;SDS011;5754;43.726;7.416;2022-12-07T08:42:03;4.07;;;2.30;;
11396;SDS011;5754;43.726;7.416;2022-12-07T08:44:39;3.63;;;2.50;;
11396;SDS011;5754;43.726;7.416;2022-12-07T08:47:14;5.33;;;2.53;;
11396;SDS011;5754;43.726;7.416;2022-12-07T08:49:52;4.47;;;2.50;;
11396;SDS011;5754;43.726;7.416;2022-12-07T08:52:28;3.80;;;2.35;;
11396;SDS011;5754;43.726;7.416;2022-12-07T08:55:04;3.25;;;2.33;;
11396;SDS011;5754;43.726;7.416;2022-12-07T08:57:39;2.50;;;1.87;;
11396;SDS011;5754;43.726;7.416;2022-12-07T09:00:14;2.30;;;2.10;;
11396;SDS011;5754;43.726;7.416;2022-12-07T09:02:50;2.85;;;2.12;;
11396;SDS011;5754;43.726;7.416;2022-12-07T09:05:24;2.03;;;1.70;;
11396;SDS011;5754;43.726;7.416;2022-12-07T09:07:59;2.65;;;1.70;;
11396;SDS011;5754;43.726;7.416;2022-12-07T09:10:36;3.85;;;1.90;;
11396;SDS011;5754;43.726;7.416;2022-12-07T09:13:10;3.80;;;1.85;;
11396;SDS011;5754;43.726;7.416;2022-12-07T09:15:45;2.40;;;1.90;;
11396;SDS011;5754;43.726;7.416;2022-12-07T09:18:19;1.77;;;1.65;;
11396;SDS011;5754;43.726;7.416;2022-12-07T09:20:54;3.22;;;1.90;;
11396;SDS011;5754;43.726;7.416;2022-12-07T09:23:28;3.03;;;1.70;;
11396;SDS011;5754;43.726;7.416;2022-12-07T09:26:03;4.82;;;1.90;;
11396;SDS011;5754;43.726;7.416;2022-12-07T09:28:42;2.20;;;1.90;;
11396;SDS011;5754;43.726;7.416;2022-12-07T09:31:17;3.60;;;1.98;;
11396;SDS011;5754;43.726;7.416;2022-12-07T09:33:57;3.45;;;1.90;;
11396;SDS011;5754;43.726;7.416;2022-12-07T09:36:33;2.53;;;2.12;;
11396;SDS011;5754;43.726;7.416;2022-12-07T09:39:07;4.00;;;1.90;;
11396;SDS011;5754;43.726;7.416;2022-12-07T09:41:42;5.05;;;2.08;;
11396;SDS011;5754;43.726;7.416;2022-12-07T09:44:20;4.57;;;1.87;;
11396;SDS011;5754;43.726;7.416;2022-12-07T09:46:56;2.37;;;1.85;;
11396;SDS011;5754;43.726;7.416;2022-12-07T09:49:33;3.28;;;2.00;;
11396;SDS011;5754;43.726;7.416;2022-12-07T09:52:18;3.58;;;2.03;;
11396;SDS011;5754;43.726;7.416;2022-12-07T09:54:53;2.50;;;1.87;;
11396;SDS011;5754;43.726;7.416;2022-12-07T09:57:29;3.05;;;2.03;;
11396;SDS011;5754;43.726;7.416;2022-12-07T10:00:07;2.70;;;2.08;;
11396;SDS011;5754;43.726;7.416;2022-12-07T10:03:04;1.87;;;1.75;;
11396;SDS011;5754;43.726;7.416;2022-12-07T10:05:40;2.25;;;1.77;;
11396;SDS011;5754;43.726;7.416;2022-12-07T10:08:16;4.18;;;1.83;;
11396;SDS011;5754;43.726;7.416;2022-12-07T10:10:54;2.58;;;2.10;;
11396;SDS011;5754;43.726;7.416;2022-12-07T10:13:37;3.42;;;2.20;;
11396;SDS011;5754;43.726;7.416;2022-12-07T10:20:38;2.22;;;2.03;;
11396;SDS011;5754;43.726;7.416;2022-12-07T10:23:16;2.03;;;1.60;;
11396;SDS011;5754;43.726;7.416;2022-12-07T10:25:52;3.15;;;1.70;;
11396;SDS011;5754;43.726;7.416;2022-12-07T10:28:33;2.20;;;1.75;;
11396;SDS011;5754;43.726;7.416;2022-12-07T10:31:15;1.95;;;1.75;;
11396;SDS011;5754;43.726;7.416;2022-12-07T10:33:52;3.92;;;1.60;;
11396;SDS011;5754;43.726;7.416;2022-12-07T10:36:35;2.35;;;1.77;;
11396;SDS011;5754;43.726;7.416;2022-12-07T10:39:15;1.60;;;1.50;;
11396;SDS011;5754;43.726;7.416;2022-12-07T10:41:53;4.07;;;1.90;;
11396;SDS011;5754;43.726;7.416;2022-12-07T10:44:30;2.60;;;2.00;;
11396;SDS011;5754;43.726;7.416;2022-12-07T10:53:07;2.50;;;1.80;;
11396;SDS011;5754;43.726;7.416;2022-12-07T10:55:53;1.63;;;1.53;;
11396;SDS011;5754;43.726;7.416;2022-12-07T10:58:37;2.70;;;1.87;;
11396;SDS011;5754;43.726;7.416;2022-12-07T11:06:33;2.40;;;1.50;;
11396;SDS011;5754;43.726;7.416;2022-12-07T11:15:21;2.20;;;1.63;;
11396;SDS011;5754;43.726;7.416;2022-12-07T11:18:11;1.70;;;1.50;;
11396;SDS011;5754;43.726;7.416;2022-12-07T11:26:04;1.93;;;1.80;;
11396;SDS011;5754;43.726;7.416;2022-12-07T11:28:56;1.90;;;1.70;;
11396;SDS011;5754;43.726;7.416;2022-12-07T11:31:56;1.73;;;1.60;;
11396;SDS011;5754;43.726;7.416;2022-12-07T11:34:37;2.10;;;1.90;;
11396;SDS011;5754;43.726;7.416;2022-12-07T11:37:15;1.63;;;1.53;;
11396;SDS011;5754;43.726;7.416;2022-12-07T11:39:52;1.97;;;1.73;;
11396;SDS011;5754;43.726;7.416;2022-12-07T11:42:33;2.47;;;1.77;;
11396;SDS011;5754;43.726;7.416;2022-12-07T11:45:24;1.73;;;1.63;;
11396;SDS011;5754;43.726;7.416;2022-12-07T11:48:02;2.57;;;1.83;;
11396;SDS011;5754;43.726;7.416;2022-12-07T11:50:38;1.90;;;1.73;;
11396;SDS011;5754;43.726;7.416;2022-12-07T11:53:59;2.10;;;1.87;;
11396;SDS011;5754;43.726;7.416;2022-12-07T11:56:36;2.17;;;1.90;;
11396;SDS011;5754;43.726;7.416;2022-12-07T11:59:23;4.60;;;1.80;;
11396;SDS011;5754;43.726;7.416;2022-12-07T12:02:03;1.83;;;1.73;;
11396;SDS011;5754;43.726;7.416;2022-12-07T12:04:49;2.10;;;1.63;;
11396;SDS011;5754;43.726;7.416;2022-12-07T12:07:26;2.23;;;1.87;;
11396;SDS011;5754;43.726;7.416;2022-12-07T12:10:54;1.83;;;1.73;;
11396;SDS011;5754;43.726;7.416;2022-12-07T12:14:08;2.33;;;1.60;;
11396;SDS011;5754;43.726;7.416;2022-12-07T12:26:38;4.33;;;1.53;;
11396;SDS011;5754;43.726;7.416;2022-12-07T12:29:31;2.13;;;1.70;;
11396;SDS011;5754;43.726;7.416;2022-12-07T12:32:17;2.00;;;1.63;;
11396;SDS011;5754;43.726;7.416;2022-12-07T12:35:19;2.43;;;1.53;;
11396;SDS011;5754;43.726;7.416;2022-12-07T12:38:23;2.27;;;1.60;;
11396;SDS011;5754;43.726;7.416;2022-12-07T12:41:00;3.00;;;1.70;;
11396;SDS011;5754;43.726;7.416;2022-12-07T12:43:40;3.40;;;1.93;;
11396;SDS011;5754;43.726;7.416;2022-12-07T12:50:43;2.07;;;1.87;;
11396;SDS011;5754;43.726;7.416;2022-12-07T12:53:24;2.50;;;1.60;;
11396;SDS011;5754;43.726;7.416;2022-12-07T12:56:10;1.97;;;1.80;;
11396;SDS011;5754;43.726;7.416;2022-12-07T12:58:50;1.80;;;1.60;;
11396;SDS011;5754;43.726;7.416;2022-12-07T13:01:56;2.17;;;1.83;;
11396;SDS011;5754;43.726;7.416;2022-12-07T13:04:49;2.60;;;1.80;;
11396;SDS011;5754;43.726;7.416;2022-12-07T13:10:37;2.87;;;2.00;;
11396;SDS011;5754;43.726;7.416;2022-12-07T13:13:28;2.53;;;1.73;;
11396;SDS011;5754;43.726;7.416;2022-12-07T13:31:45;1.50;;;1.40;;
11396;SDS011;5754;43.726;7.416;2022-12-07T13:34:36;2.20;;;1.50;;
11396;SDS011;5754;43.726;7.416;2022-12-07T13:37:12;2.70;;;1.80;;
11396;SDS011;5754;43.726;7.416;2022-12-07T13:39:49;2.40;;;1.43;;
11396;SDS011;5754;43.726;7.416;2022-12-07T13:42:29;1.80;;;1.70;;
11396;SDS011;5754;43.726;7.416;2022-12-07T13:48:30;1.47;;;1.30;;
11396;SDS011;5754;43.726;7.416;2022-12-07T13:51:12;1.60;;;1.50;;
11396;SDS011;5754;43.726;7.416;2022-12-07T13:53:52;1.70;;;1.30;;
11396;SDS011;5754;43.726;7.416;2022-12-07T13:56:28;1.87;;;1.40;;
11396;SDS011;5754;43.726;7.416;2022-12-07T13:59:22;1.80;;;1.50;;
11396;SDS011;5754;43.726;7.416;2022-12-07T14:01:57;1.67;;;1.57;;
11396;SDS011;5754;43.726;7.416;2022-12-07T14:04:36;1.63;;;1.30;;
11396;SDS011;5754;43.726;7.416;2022-12-07T14:07:26;2.90;;;1.63;;
11396;SDS011;5754;43.726;7.416;2022-12-07T14:10:05;1.80;;;1.40;;
11396;SDS011;5754;43.726;7.416;2022-12-07T14:12:41;2.50;;;1.67;;
11396;SDS011;5754;43.726;7.416;2022-12-07T14:15:20;1.70;;;1.60;;
11396;SDS011;5754;43.726;7.416;2022-12-07T14:17:55;2.10;;;1.30;;
11396;SDS011;5754;43.726;7.416;2022-12-07T14:20:34;1.20;;;1.10;;
11396;SDS011;5754;43.726;7.416;2022-12-07T14:23:23;2.40;;;1.27;;
11396;SDS011;5754;43.726;7.416;2022-12-07T14:26:09;1.70;;;1.10;;
11396;SDS011;5754;43.726;7.416;2022-12-07T14:28:45;1.60;;;1.50;;
11396;SDS011;5754;43.726;7.416;2022-12-07T14:31:21;2.30;;;1.50;;
11396;SDS011;5754;43.726;7.416;2022-12-07T14:34:03;4.50;;;1.60;;
11396;SDS011;5754;43.726;7.416;2022-12-07T14:36:38;3.27;;;1.70;;
11396;SDS011;5754;43.726;7.416;2022-12-07T14:39:12;2.47;;;1.30;;
11396;SDS011;5754;43.726;7.416;2022-12-07T14:41:47;1.63;;;1.53;;
11396;SDS011;5754;43.726;7.416;2022-12-07T14:44:24;3.47;;;1.53;;
11396;SDS011;5754;43.726;7.416;2022-12-07T14:47:01;2.93;;;1.60;;
11396;SDS011;5754;43.726;7.416;2022-12-07T14:50:06;1.57;;;1.40;;
11396;SDS011;5754;43.726;7.416;2022-12-07T14:52:41;1.60;;;1.40;;
11396;SDS011;5754;43.726;7.416;2022-12-07T14:55:46;1.60;;;1.40;;
11396;SDS011;5754;43.726;7.416;2022-12-07T14:58:21;2.40;;;1.87;;
11396;SDS011;5754;43.726;7.416;2022-12-07T15:00:55;3.37;;;1.77;;
11396;SDS011;5754;43.726;7.416;2022-12-07T15:03:29;1.83;;;1.47;;
11396;SDS011;5754;43.726;7.416;2022-12-07T15:06:04;1.60;;;1.33;;
11396;SDS011;5754;43.726;7.416;2022-12-07T15:08:38;3.27;;;1.63;;
11396;SDS011;5754;43.726;7.416;2022-12-07T15:11:13;6.20;;;1.73;;
11396;SDS011;5754;43.726;7.416;2022-12-07T15:13:48;3.73;;;1.80;;
11396;SDS011;5754;43.726;7.416;2022-12-07T15:16:41;4.13;;;1.80;;
11396;SDS011;5754;43.726;7.416;2022-12-07T15:19:40;3.37;;;1.37;;
11396;SDS011;5754;43.726;7.416;2022-12-07T15:22:14;2.60;;;1.60;;
11396;SDS011;5754;43.726;7.416;2022-12-07T15:24:48;2.33;;;1.37;;
11396;SDS011;5754;43.726;7.416;2022-12-07T15:27:23;2.67;;;1.70;;
11396;SDS011;5754;43.726;7.416;2022-12-07T15:29:57;2.17;;;1.40;;
11396;SDS011;5754;43.726;7.416;2022-12-07T15:32:33;3.07;;;1.70;;
11396;SDS011;5754;43.726;7.416;2022-12-07T15:35:07;1.97;;;1.40;;
11396;SDS011;5754;43.726;7.416;2022-12-07T15:37:42;2.13;;;1.37;;
11396;SDS011;5754;43.726;7.416;2022-12-07T15:40:16;2.27;;;1.40;;
11396;SDS011;5754;43.726;7.416;2022-12-07T15:42:51;1.70;;;1.60;;
11396;SDS011;5754;43.726;7.416;2022-12-07T15:45:25;2.23;;;1.67;;
11396;SDS011;5754;43.726;7.416;2022-12-07T15:47:59;1.77;;;1.47;;
11396;SDS011;5754;43.726;7.416;2022-12-07T15:51:05;1.60;;;1.50;;
11396;SDS011;5754;43.726;7.416;2022-12-07T15:53:40;4.93;;;1.50;;
11396;SDS011;5754;43.726;7.416;2022-12-07T15:56:14;2.20;;;1.50;;
11396;SDS011;5754;43.726;7.416;2022-12-07T15:58:49;2.80;;;2.20;;
11396;SDS011;5754;43.726;7.416;2022-12-07T16:01:23;1.97;;;1.67;;
11396;SDS011;5754;43.726;7.416;2022-12-07T16:03:57;2.90;;;1.40;;
11396;SDS011;5754;43.726;7.416;2022-12-07T16:06:33;1.63;;;1.43;;
11396;SDS011;5754;43.726;7.416;2022-12-07T16:09:07;2.73;;;1.63;;
11396;SDS011;5754;43.726;7.416;2022-12-07T16:11:42;1.77;;;1.67;;
11396;SDS011;5754;43.726;7.416;2022-12-07T16:14:16;2.00;;;1.63;;
11396;SDS011;5754;43.726;7.416;2022-12-07T16:16:51;1.70;;;1.60;;
11396;SDS011;5754;43.726;7.416;2022-12-07T16:19:25;3.00;;;1.60;;
11396;SDS011;5754;43.726;7.416;2022-12-07T16:21:59;2.03;;;1.63;;
11396;SDS011;5754;43.726;7.416;2022-12-07T16:24:34;2.70;;;1.73;;
11396;SDS011;5754;43.726;7.416;2022-12-07T16:27:08;1.63;;;1.40;;
11396;SDS011;5754;43.726;7.416;2022-12-07T16:29:44;1.80;;;1.50;;
11396;SDS011;5754;43.726;7.416;2022-12-07T16:32:18;2.27;;;1.40;;
11396;SDS011;5754;43.726;7.416;2022-12-07T16:34:53;1.60;;;1.50;;
11396;SDS011;5754;43.726;7.416;2022-12-07T16:37:28;2.43;;;1.70;;
11396;SDS011;5754;43.726;7.416;2022-12-07T16:40:03;1.57;;;1.40;;
11396;SDS011;5754;43.726;7.416;2022-12-07T16:42:37;1.60;;;1.50;;
11396;SDS011;5754;43.726;7.416;2022-12-07T16:45:12;1.67;;;1.53;;
11396;SDS011;5754;43.726;7.416;2022-12-07T16:47:51;1.70;;;1.60;;
11396;SDS011;5754;43.726;7.416;2022-12-07T16:50:25;2.13;;;1.73;;
11396;SDS011;5754;43.726;7.416;2022-12-07T16:53:00;2.27;;;1.50;;
11396;SDS011;5754;43.726;7.416;2022-12-07T16:55:41;1.60;;;1.50;;
11396;SDS011;5754;43.726;7.416;2022-12-07T16:58:17;3.47;;;1.90;;
11396;SDS011;5754;43.726;7.416;2022-12-07T17:00:51;3.90;;;1.73;;
11396;SDS011;5754;43.726;7.416;2022-12-07T17:03:26;3.03;;;1.80;;
11396;SDS011;5754;43.726;7.416;2022-12-07T17:06:00;3.57;;;2.20;;
11396;SDS011;5754;43.726;7.416;2022-12-07T17:08:35;2.90;;;2.00;;
11396;SDS011;5754;43.726;7.416;2022-12-07T17:11:20;4.27;;;2.20;;
11396;SDS011;5754;43.726;7.416;2022-12-07T17:13:54;4.93;;;2.60;;
11396;SDS011;5754;43.726;7.416;2022-12-07T17:19:29;3.20;;;2.90;;
11396;SDS011;5754;43.726;7.416;2022-12-07T17:22:03;7.50;;;3.73;;
11396;SDS011;5754;43.726;7.416;2022-12-07T17:24:39;5.27;;;2.77;;
11396;SDS011;5754;43.726;7.416;2022-12-07T17:27:13;4.93;;;3.03;;
11396;SDS011;5754;43.726;7.416;2022-12-07T17:29:51;3.60;;;2.70;;
11396;SDS011;5754;43.726;7.416;2022-12-07T17:32:25;3.77;;;3.30;;
11396;SDS011;5754;43.726;7.416;2022-12-07T17:35:01;5.73;;;3.50;;
11396;SDS011;5754;43.726;7.416;2022-12-07T17:37:35;6.37;;;5.33;;
11396;SDS011;5754;43.726;7.416;2022-12-07T17:40:10;6.43;;;5.67;;
11396;SDS011;5754;43.726;7.416;2022-12-07T17:42:44;6.60;;;4.00;;